Venice Bridge — 3EAU3 — position and weather

sailwx.info

Track history (hours):
 
Tides and Currents Weather Stations Pressure Air Temp Water Temp Dewpoint Dewpoint Depression Visibility Wind Speed Wind Dir Waves Ship Positions

Venice Bridge

Last reported at 2018-Feb-17 17:11 UTC. Time now 2018-Feb-21 03:30 UTC.
Position N 09°34' W 079°49'.

Type: Cargo ship. MMSI: 352798000.

Date/timePositionNaut miles runAvg speedWind from/ knotsBaromVisibWave heightAir tempDewpointWater temp
2018-Feb-17 17:11N 09°34' W 079°49'315.7
2018-Feb-17 17:00N 09°32' W 079°51'815.1
2018-Feb-17 16:30N 09°26' W 079°55'5 9.4
2018-Feb-17 16:00N 09°21' W 079°55'3 7.0
2018-Feb-17 15:30N 09°18' W 079°55'1 2.0
2018-Feb-17 14:59N 09°17' W 079°55'0 0.4
2018-Feb-17 14:25N 09°16' W 079°55'0 0.4
2018-Feb-17 14:00N 09°16' W 079°55'2 2.2
2018-Feb-17 13:16N 09°15' W 079°55'  
2018-Feb-10 07:44N 32°02' W 119°38'419.4
2018-Feb-10 07:31N 32°06' W 119°41'1019.8
2018-Feb-10 07:00N 32°14' W 119°48'1019.7
2018-Feb-10 06:30N 32°22' W 119°55'1019.7
2018-Feb-10 05:59N 32°30' W 120°02'919.4
2018-Feb-10 05:30N 32°37' W 120°09'1119.3
2018-Feb-10 04:57N 32°46' W 120°16'919.3
2018-Feb-10 04:30N 32°53' W 120°23'919.3
2018-Feb-10 04:00N 33°01' W 120°29'1019.5
2018-Feb-10 03:30N 33°08' W 120°36'1019.1
2018-Feb-10 03:01N 33°16' W 120°43'1019.2
2018-Feb-10 02:30N 33°24' W 120°50'1019.2
2018-Feb-10 02:01N 33°32' W 120°57'1019.3
2018-Feb-10 01:30N 33°39' W 121°03'1019.3
2018-Feb-10 00:59N 33°48' W 121°11'1119.4
2018-Feb-10 00:26N 33°56' W 121°18'919.1
2018-Feb-09 23:58N 34°03' W 121°24'919.5
2018-Feb-09 23:29N 34°12' W 121°29'919.8
2018-Feb-09 23:00N 34°20' W 121°35'519.8
2018-Feb-09 22:44N 34°25' W 121°38'519.7
2018-Feb-09 22:31N 34°29' W 121°40'1019.7
2018-Feb-09 22:00N 34°38' W 121°46'5819.3
2018-Feb-09 19:00N 35°30' W 122°17'2919.4
2018-Feb-09 17:30N 35°56' W 122°32'1919.5
2018-Feb-09 16:30N 36°14' W 122°42'3919.4
2018-Feb-09 14:30N 36°48' W 123°03'2919.3
2018-Feb-09 13:00N 37°14' W 123°19'3819.0
2018-Feb-09 11:00N 37°48' W 123°41'1019.2
2018-Feb-09 10:30N 37°57' W 123°46'38718.9
2018-Feb-08 14:00N 44°17' W 125°20'8418.7
2018-Feb-08 09:30N 45°41' W 125°19'918.6
2018-Feb-08 09:00N 45°51' W 125°20'918.7
2018-Feb-08 08:30N 46°00' W 125°20'918.7
2018-Feb-08 08:00N 46°09' W 125°20'918.8
2018-Feb-08 07:30N 46°19' W 125°20'918.6
2018-Feb-08 07:00N 46°28' W 125°20'5518.5
2018-Feb-08 04:00N 47°24' W 125°20'4718.3
2018-Feb-08 01:25N 48°11' W 125°15'818.3
2018-Feb-08 01:00N 48°18' W 125°13'917.7
2018-Feb-08 00:30N 48°27' W 125°07'816.5
2018-Feb-08 00:00N 48°31' W 124°57'918.7
2018-Feb-07 23:30N 48°30' W 124°43'1019.9
2018-Feb-07 23:01N 48°26' W 124°29'1020.3
2018-Feb-07 22:30N 48°22' W 124°15'1120.4
2018-Feb-07 21:58N 48°18' W 123°59'1020.4
2018-Feb-07 21:29N 48°16' W 123°45'  
Track history (hours):
 
Tides and Currents Weather Stations Pressure Air Temp Water Temp Dewpoint Dewpoint Depression Visibility Wind Speed Wind Dir Waves Ship Positions

Venice Bridge

Last reported at 2018-Feb-17 17:11 UTC. Time now 2018-Feb-21 03:30 UTC.
Position N 09°34' W 079°49'.

Type: Cargo ship. MMSI: 352798000.

Date/timePositionNaut miles runAvg speedWind from/ knotsBaromVisibWave heightAir tempDewpointWater temp
2018-Feb-17 17:11N 09°34' W 079°49'315.7
2018-Feb-17 17:00N 09°32' W 079°51'815.1
2018-Feb-17 16:30N 09°26' W 079°55'5 9.4
2018-Feb-17 16:00N 09°21' W 079°55'3 7.0
2018-Feb-17 15:30N 09°18' W 079°55'1 2.0
2018-Feb-17 14:59N 09°17' W 079°55'0 0.4
2018-Feb-17 14:25N 09°16' W 079°55'0 0.4
2018-Feb-17 14:00N 09°16' W 079°55'2 2.2
2018-Feb-17 13:16N 09°15' W 079°55'  
2018-Feb-10 07:44N 32°02' W 119°38'419.4
2018-Feb-10 07:31N 32°06' W 119°41'1019.8
2018-Feb-10 07:00N 32°14' W 119°48'1019.7
2018-Feb-10 06:30N 32°22' W 119°55'1019.7
2018-Feb-10 05:59N 32°30' W 120°02'919.4
2018-Feb-10 05:30N 32°37' W 120°09'1119.3
2018-Feb-10 04:57N 32°46' W 120°16'919.3
2018-Feb-10 04:30N 32°53' W 120°23'919.3
2018-Feb-10 04:00N 33°01' W 120°29'1019.5
2018-Feb-10 03:30N 33°08' W 120°36'1019.1
2018-Feb-10 03:01N 33°16' W 120°43'1019.2
2018-Feb-10 02:30N 33°24' W 120°50'1019.2
2018-Feb-10 02:01N 33°32' W 120°57'1019.3
2018-Feb-10 01:30N 33°39' W 121°03'1019.3
2018-Feb-10 00:59N 33°48' W 121°11'1119.4
2018-Feb-10 00:26N 33°56' W 121°18'919.1
2018-Feb-09 23:58N 34°03' W 121°24'919.5
2018-Feb-09 23:29N 34°12' W 121°29'919.8
2018-Feb-09 23:00N 34°20' W 121°35'519.8
2018-Feb-09 22:44N 34°25' W 121°38'519.7
2018-Feb-09 22:31N 34°29' W 121°40'1019.7
2018-Feb-09 22:00N 34°38' W 121°46'5819.3
2018-Feb-09 19:00N 35°30' W 122°17'2919.4
2018-Feb-09 17:30N 35°56' W 122°32'1919.5
2018-Feb-09 16:30N 36°14' W 122°42'3919.4
2018-Feb-09 14:30N 36°48' W 123°03'2919.3
2018-Feb-09 13:00N 37°14' W 123°19'3819.0
2018-Feb-09 11:00N 37°48' W 123°41'1019.2
2018-Feb-09 10:30N 37°57' W 123°46'38718.9
2018-Feb-08 14:00N 44°17' W 125°20'8418.7
2018-Feb-08 09:30N 45°41' W 125°19'918.6
2018-Feb-08 09:00N 45°51' W 125°20'918.7
2018-Feb-08 08:30N 46°00' W 125°20'918.7
2018-Feb-08 08:00N 46°09' W 125°20'918.8
2018-Feb-08 07:30N 46°19' W 125°20'918.6
2018-Feb-08 07:00N 46°28' W 125°20'5518.5
2018-Feb-08 04:00N 47°24' W 125°20'4718.3
2018-Feb-08 01:25N 48°11' W 125°15'818.3
2018-Feb-08 01:00N 48°18' W 125°13'917.7
2018-Feb-08 00:30N 48°27' W 125°07'816.5
2018-Feb-08 00:00N 48°31' W 124°57'918.7
2018-Feb-07 23:30N 48°30' W 124°43'1019.9
2018-Feb-07 23:01N 48°26' W 124°29'1020.3
2018-Feb-07 22:30N 48°22' W 124°15'1120.4
2018-Feb-07 21:58N 48°18' W 123°59'1020.4
2018-Feb-07 21:29N 48°16' W 123°45'  

Dump ship's entire track history